This is the latest recevied weather packets stored in our database for station/object K1FSY-9. If no packets are shown the sender has not sent any weather packets the latest 10 day(s).
| Time | Temp. | Humidity | Pressure | Rain* | Wind** | Luminosity | Snow |
|---|---|---|---|---|---|---|---|
| 1777734248 | 11.67° C | 76% | 1009.1 hPa | 1.27 mm | - | - | - |
| 1777732444 | 11.11° C | 78% | 1009.1 hPa | 1.27 mm | - | - | - |
| 1777727034 | 11.11° C | 84% | 1009.8 hPa | 1.27 mm | - | - | - |
| 1777723429 | 7.78° C | 93% | 1010.1 hPa | 1.27 mm | - | - | - |
| 1777688062 | 11.11° C | 64% | 1009.8 hPa | 0 mm | - | - | - |
| 1777686258 | 11.67° C | 62% | 1009.8 hPa | 0 mm | - | - | - |
| 1777682653 | 12.22° C | 59% | 1008.8 hPa | 0 mm | - | - | - |
| 1777680853 | 12.78° C | 57% | 1008.1 hPa | 0 mm | - | - | - |
| 1777679046 | 13.33° C | 52% | 1007.4 hPa | 0 mm | - | - | - |
| 1777677244 | 13.89° C | 50% | 1006.7 hPa | 0 mm | - | - | - |
| 1777675458 | 15° C | 44% | 1006.7 hPa | 0 mm | - | - | - |
| 1777673636 | 16.11° C | 40% | 1006.4 hPa | 0 mm | - | - | - |
| 1777671834 | 16.11° C | 40% | 1006.4 hPa | 0 mm | - | - | - |
| 1777666428 | 17.22° C | 36% | 1006.4 hPa | 0 mm | - | - | - |
| 1777662821 | 16.11° C | 37% | 1006.4 hPa | 0 mm | - | - | - |
| 1777661020 | 16.67° C | 36% | 1007.1 hPa | 0 mm | - | - | - |
| 1777659217 | 16.11° C | 34% | 1007.1 hPa | 0 mm | - | - | - |
| 1777657414 | 15° C | 41% | 1007.4 hPa | 0 mm | - | - | - |
| 1777655610 | 15.56° C | 41% | 1007.7 hPa | 0 mm | - | - | - |
| 1777653811 | 14.44° C | 39% | 1007.7 hPa | 0 mm | - | - | - |
| 1777652006 | 13.89° C | 45% | 1008.1 hPa | 0 mm | - | - | - |
| 1777650205 | 13.89° C | 45% | 1008.8 hPa | 0 mm | - | - | - |
| 1777648400 | 13.33° C | 45% | 1009.1 hPa | 0 mm | - | - | - |
| 1777646605 | 12.22° C | 50% | 1009.4 hPa | 0 mm | - | - | - |
| 1777644795 | 10.56° C | 52% | 1009.4 hPa | 0 mm | - | - | - |
* Rain latest 24 hours (hover to see other rain measurements)
** Current wind speed in m/s (hover to see current wind gust speed)